Time;durP1;ratioP1;P1;durP2;ratioP2;P2;SDS_P1;SDS_P2;PMS_P1;PMS_P2;Temp;Humidity;BMP_temperature;BMP_pressure;BME280_temperature;BME280_humidity;BME280_pressure;Samples;Min_cycle;Max_cycle;Signal;HPM_P1;HPM_P2
2022/04/24 00:00:30;;;;;;;;;;;;;;;19.45;57.59;98053.03;2062365;28;19917;-66
2022/04/24 00:01:30;;;;;;;;;;;;;;;19.46;57.54;98053.88;2065613;28;19999;-66
2022/04/24 00:02:31;;;;;;;;;;;;;;;19.46;57.44;98049.25;2071680;28;20114;-66
2022/04/24 00:03:31;;;;;;;;;;;;;;;19.46;57.49;98043.78;2063109;28;20772;-66
2022/04/24 00:04:31;;;;;;;;;;;;;;;19.47;57.49;98050.09;2067104;28;20587;-66
2022/04/24 00:05:32;;;;;;;;;;;;;;;19.46;57.42;98045.69;2065314;28;19917;-66
2022/04/24 00:06:32;;;;;;;;;;;;;;;19.46;57.63;98048.41;2066391;28;19917;-66
2022/04/24 00:07:33;;;;;;;;;;;;;;;19.46;57.60;98054.72;2065701;28;19913;-66
2022/04/24 00:08:33;;;;;;;;;;;;;;;19.45;57.56;98050.31;2062871;28;19925;-66
2022/04/24 00:09:34;;;;;;;;;;;;;;;19.46;57.56;98042.94;2064246;28;19917;-66
2022/04/24 00:10:38;;;;;;;;;;;;;;;19.46;57.56;98054.72;2063564;28;20263;-66
2022/04/24 00:11:38;;;;;;;;;;;;;;;19.46;57.46;98048.41;2064287;28;19914;-66
2022/04/24 00:12:38;;;;;;;;;;;;;;;19.46;57.51;98059.34;2064858;28;19917;-66
2022/04/24 00:13:41;;;;;;;;;;;;;;;19.46;57.54;98053.88;2061889;28;19988;-66
2022/04/24 00:14:46;;;;;;;;;;;;;;;19.46;57.50;98054.72;2063795;28;20040;-66
2022/04/24 00:15:46;;;;;;;;;;;;;;;19.44;57.48;98056.81;2064859;28;20359;-66
2022/04/24 00:16:46;;;;;;;;;;;;;;;19.46;57.62;98051.16;2064179;28;19927;-66
2022/04/24 00:17:46;;;;;;;;;;;;;;;19.46;57.55;98053.88;2065890;28;20817;-66
2022/04/24 00:18:47;;;;;;;;;;;;;;;19.45;57.65;98063.09;2064081;28;20642;-66
2022/04/24 00:19:48;;;;;;;;;;;;;;;19.44;57.58;98053.22;2066756;28;19917;-66
2022/04/24 00:20:48;;;;;;;;;;;;;;;19.43;57.54;98051.56;2063751;28;19933;-66
2022/04/24 00:21:49;;;;;;;;;;;;;;;19.43;57.55;98048.81;2063541;28;19917;-65
2022/04/24 00:22:50;;;;;;;;;;;;;;;19.43;57.72;98055.13;2068885;28;19948;-66
2022/04/24 00:23:50;;;;;;;;;;;;;;;19.43;57.67;98059.75;2062610;28;20805;-65
2022/04/24 00:24:50;;;;;;;;;;;;;;;19.42;57.70;98047.13;2064009;28;20400;-65
2022/04/24 00:25:50;;;;;;;;;;;;;;;19.42;57.70;98047.13;2063731;28;19921;-65
2022/04/24 00:26:52;;;;;;;;;;;;;;;19.41;57.71;98050.91;2063981;28;19922;-67
2022/04/24 00:27:52;;;;;;;;;;;;;;;19.41;57.72;98050.91;2063874;28;19964;-66
2022/04/24 00:28:53;;;;;;;;;;;;;;;19.40;57.73;98049.19;2054983;28;20458;-65
2022/04/24 00:29:54;;;;;;;;;;;;;;;19.40;57.76;98051.94;2055683;28;19913;-65
2022/04/24 00:30:55;;;;;;;;;;;;;;;19.37;57.75;98050.44;2063779;28;20025;-65
2022/04/24 00:31:56;;;;;;;;;;;;;;;19.37;57.80;98044.16;2063553;28;20381;-65
2022/04/24 00:32:56;;;;;;;;;;;;;;;19.36;57.85;98042.47;2065156;28;20348;-66
2022/04/24 00:33:56;;;;;;;;;;;;;;;19.36;57.85;98048.78;2060761;28;19922;-66
2022/04/24 00:34:57;;;;;;;;;;;;;;;19.36;57.93;98048.78;2065938;28;19963;-66
2022/04/24 00:35:57;;;;;;;;;;;;;;;19.35;57.81;98047.06;2065022;28;19917;-65
2022/04/24 00:36:57;;;;;;;;;;;;;;;19.35;57.96;98049.81;2061865;28;19917;-66
2022/04/24 00:37:58;;;;;;;;;;;;;;;19.34;57.98;98045.41;2068787;28;19927;-66
2022/04/24 00:38:58;;;;;;;;;;;;;;;19.34;57.96;98045.41;2064764;28;19914;-66
2022/04/24 00:39:58;;;;;;;;;;;;;;;19.35;58.00;98046.22;2064742;28;19944;-66
2022/04/24 00:40:59;;;;;;;;;;;;;;;19.32;57.90;98046.66;2064938;28;20149;-66
2022/04/24 00:41:59;;;;;;;;;;;;;;;19.33;58.02;98048.31;2063418;28;20195;-66
2022/04/24 00:43:00;;;;;;;;;;;;;;;19.32;57.99;98050.22;2064798;28;19909;-66
2022/04/24 00:44:00;;;;;;;;;;;;;;;19.32;58.00;98046.66;2061418;28;20788;-66
2022/04/24 00:45:00;;;;;;;;;;;;;;;19.31;57.93;98053.16;2065216;28;20604;-66
2022/04/24 00:46:19;;;;;;;;;;;;;;;19.31;58.11;98050.44;2066788;28;19921;-66
2022/04/24 00:47:21;;;;;;;;;;;;;;;19.31;58.08;98056.72;2064141;28;20464;-65
2022/04/24 00:48:22;;;;;;;;;;;;;;;19.31;58.10;98047.69;2064785;28;20364;-66
2022/04/24 00:49:23;;;;;;;;;;;;;;;19.32;58.14;98046.66;2064118;28;20292;-66
2022/04/24 00:50:23;;;;;;;;;;;;;;;19.31;58.08;98051.28;2064550;28;19959;-66
2022/04/24 00:51:23;;;;;;;;;;;;;;;19.32;58.06;98052.09;2064018;28;19910;-65
2022/04/24 00:52:24;;;;;;;;;;;;;;;19.31;58.03;98056.72;2063911;28;19913;-66
2022/04/24 00:53:24;;;;;;;;;;;;;;;19.32;58.11;98057.56;2059370;28;19998;-66
2022/04/24 00:54:25;;;;;;;;;;;;;;;19.31;58.07;98055.91;2061661;28;20308;-66
2022/04/24 00:55:25;;;;;;;;;;;;;;;19.31;58.10;98061.34;2064940;28;20300;-66
2022/04/24 00:56:30;;;;;;;;;;;;;;;19.32;58.09;98063.03;2064540;28;19923;-65
2022/04/24 00:57:31;;;;;;;;;;;;;;;19.31;58.24;98059.47;2063748;28;19941;-66
2022/04/24 00:58:32;;;;;;;;;;;;;;;19.31;57.95;98061.34;2063100;28;20699;-65
2022/04/24 00:59:32;;;;;;;;;;;;;;;19.31;58.16;98055.91;2063905;28;19917;-65
2022/04/24 01:00:32;;;;;;;;;;;;;;;19.31;58.13;98058.63;2065973;28;19918;-66
2022/04/24 01:01:33;;;;;;;;;;;;;;;19.30;58.07;98059.66;2062771;28;19914;-67
2022/04/24 01:02:34;;;;;;;;;;;;;;;19.30;58.19;98062.38;2063953;28;19949;-66
2022/04/24 01:03:34;;;;;;;;;;;;;;;19.28;58.14;98057.16;2063630;28;20649;-65
2022/04/24 01:04:35;;;;;;;;;;;;;;;19.28;58.15;98065.34;2064005;28;19968;-65
2022/04/24 01:05:35;;;;;;;;;;;;;;;19.28;58.19;98062.59;2063634;28;19918;-65
2022/04/24 01:06:44;;;;;;;;;;;;;;;19.27;58.20;98066.38;2062654;28;19924;-66
2022/04/24 01:07:45;;;;;;;;;;;;;;;19.27;58.18;98066.38;2064237;28;19921;-66
2022/04/24 01:08:45;;;;;;;;;;;;;;;19.26;58.15;98064.69;2064751;28;20020;-66
2022/04/24 01:09:45;;;;;;;;;;;;;;;19.26;58.14;98065.53;2062470;28;19945;-65
2022/04/24 01:10:46;;;;;;;;;;;;;;;19.26;58.14;98071.00;2066195;28;19999;-65
2022/04/24 01:11:47;;;;;;;;;;;;;;;19.25;57.99;98057.53;2064688;28;20468;-65
2022/04/24 01:12:48;;;;;;;;;;;;;;;19.24;58.16;98062.16;2071957;28;19951;-66
2022/04/24 01:13:48;;;;;;;;;;;;;;;19.24;58.14;98062.16;2068248;28;20555;-65
2022/04/24 01:14:48;;;;;;;;;;;;;;;19.24;58.23;98059.41;2062287;28;20278;-66
2022/04/24 01:15:48;;;;;;;;;;;;;;;19.23;58.26;98060.47;2059650;28;20663;-66
2022/04/24 01:16:49;;;;;;;;;;;;;;;19.22;58.31;98069.69;2061054;28;19984;-66
2022/04/24 01:17:49;;;;;;;;;;;;;;;19.22;58.31;98069.69;2062435;28;19921;-66
2022/04/24 01:18:50;;;;;;;;;;;;;;;19.21;58.40;98073.47;2064143;28;20364;-66
2022/04/24 01:19:51;;;;;;;;;;;;;;;19.20;58.39;98065.47;2062262;28;19953;-66
2022/04/24 01:20:52;;;;;;;;;;;;;;;19.20;58.38;98065.47;2054186;28;20178;-66
2022/04/24 01:21:53;;;;;;;;;;;;;;;19.20;58.44;98071.78;2062928;28;19961;-65
2022/04/24 01:22:54;;;;;;;;;;;;;;;19.19;58.48;98067.38;2059762;28;19921;-66
2022/04/24 01:23:54;;;;;;;;;;;;;;;19.19;58.46;98074.72;2060319;28;19914;-66
2022/04/24 01:24:54;;;;;;;;;;;;;;;19.18;58.39;98067.56;2060155;28;19918;-66
2022/04/24 01:25:55;;;;;;;;;;;;;;;19.17;58.52;98063.97;2063764;28;19974;-65
2022/04/24 01:26:55;;;;;;;;;;;;;;;19.18;58.55;98067.56;2060677;28;20536;-65
2022/04/24 01:27:55;;;;;;;;;;;;;;;19.17;58.37;98072.19;2063895;28;19924;-65
2022/04/24 01:28:56;;;;;;;;;;;;;;;19.16;58.50;98062.31;2058495;28;19930;-65
2022/04/24 01:29:56;;;;;;;;;;;;;;;19.15;58.50;98060.59;2066456;28;19928;-66
2022/04/24 01:30:56;;;;;;;;;;;;;;;19.17;58.53;98069.44;2063671;28;19928;-66
2022/04/24 01:31:57;;;;;;;;;;;;;;;19.16;58.46;98065.03;2067777;28;20376;-65
2022/04/24 01:32:57;;;;;;;;;;;;;;;19.16;58.48;98065.03;2066254;28;19932;-64
2022/04/24 01:33:58;;;;;;;;;;;;;;;19.16;58.45;98067.78;2066806;28;20304;-65
2022/04/24 01:34:59;;;;;;;;;;;;;;;19.15;58.64;98066.06;2065565;28;19918;-65
2022/04/24 01:35:59;;;;;;;;;;;;;;;19.16;58.39;98061.47;2065769;28;20606;-67
2022/04/24 01:36:59;;;;;;;;;;;;;;;19.15;58.50;98057.88;2067233;28;19932;-65
2022/04/24 01:38:00;;;;;;;;;;;;;;;19.15;58.56;98063.34;2064090;28;19921;-65
2022/04/24 01:39:00;;;;;;;;;;;;;;;19.15;58.51;98065.22;2065706;28;19955;-64
2022/04/24 01:40:01;;;;;;;;;;;;;;;19.15;58.45;98065.22;2068383;28;19921;-65
2022/04/24 01:41:01;;;;;;;;;;;;;;;19.15;58.58;98063.34;2062416;28;19957;-65
2022/04/24 01:42:02;;;;;;;;;;;;;;;19.14;58.55;98067.13;2065124;28;19951;-66
2022/04/24 01:43:02;;;;;;;;;;;;;;;19.15;58.52;98068.78;2065345;28;19906;-66
2022/04/24 01:44:02;;;;;;;;;;;;;;;19.15;58.67;98070.69;2064328;28;19910;-66
2022/04/24 01:45:03;;;;;;;;;;;;;;;19.14;58.64;98069.84;2066564;28;19910;-66
2022/04/24 01:46:06;;;;;;;;;;;;;;;19.14;58.65;98074.47;2070538;28;19921;-65
2022/04/24 01:47:07;;;;;;;;;;;;;;;19.13;58.65;98076.34;2066229;28;19925;-65
2022/04/24 01:48:07;;;;;;;;;;;;;;;19.12;58.59;98071.94;2054645;28;19949;-65
2022/04/24 01:49:08;;;;;;;;;;;;;;;19.12;58.49;98073.81;2063906;28;19964;-65
2022/04/24 01:50:08;;;;;;;;;;;;;;;19.11;58.62;98078.44;2064603;28;19944;-65
2022/04/24 01:51:09;;;;;;;;;;;;;;;19.11;58.66;98081.19;2063124;28;19922;-65
2022/04/24 01:52:09;;;;;;;;;;;;;;;19.11;58.63;98083.91;2065654;28;19928;-65
2022/04/24 01:53:09;;;;;;;;;;;;;;;19.10;58.69;98076.75;2063574;28;19921;-64
2022/04/24 01:54:10;;;;;;;;;;;;;;;19.09;58.70;98086.00;2072502;28;19919;-65
2022/04/24 01:55:10;;;;;;;;;;;;;;;19.10;58.62;98082.22;2070059;28;19917;-64
2022/04/24 01:56:11;;;;;;;;;;;;;;;19.10;58.68;98087.66;2066165;28;20506;-64
2022/04/24 01:57:12;;;;;;;;;;;;;;;19.08;58.75;98087.00;2061381;28;20670;-65
2022/04/24 01:58:12;;;;;;;;;;;;;;;19.08;58.71;98089.75;2065743;28;20356;-65
2022/04/24 01:59:12;;;;;;;;;;;;;;;19.08;58.72;98089.75;2064310;28;19924;-65
2022/04/24 02:00:13;;;;;;;;;;;;;;;19.06;58.68;98083.66;2063310;28;19917;-65
2022/04/24 02:01:13;;;;;;;;;;;;;;;19.05;58.83;98080.06;2065143;28;19928;-65
2022/04/24 02:02:14;;;;;;;;;;;;;;;19.05;58.76;98085.53;2063351;28;20656;-66
2022/04/24 02:03:14;;;;;;;;;;;;;;;19.03;58.82;98082.19;2064826;28;19972;-66
2022/04/24 02:04:14;;;;;;;;;;;;;;;19.03;58.91;98081.31;2065457;28;19940;-66
2022/04/24 02:05:15;;;;;;;;;;;;;;;19.02;58.84;98087.81;2061256;28;20349;-65
2022/04/24 02:06:15;;;;;;;;;;;;;;;19.02;58.88;98090.56;2062848;28;19953;-66
2022/04/24 02:07:15;;;;;;;;;;;;;;;19.01;58.92;98089.72;2063472;28;19922;-66
2022/04/24 02:08:16;;;;;;;;;;;;;;;19.01;58.82;98088.84;2064216;28;19931;-66
2022/04/24 02:09:16;;;;;;;;;;;;;;;19.01;58.86;98083.38;2065898;28;20079;-66
2022/04/24 02:10:16;;;;;;;;;;;;;;;18.99;58.89;98086.34;2064061;28;19917;-65
2022/04/24 02:11:17;;;;;;;;;;;;;;;19.00;58.98;98089.91;2065009;28;20580;-66
2022/04/24 02:12:17;;;;;;;;;;;;;;;18.99;58.92;98088.22;2065079;28;20777;-65
2022/04/24 02:13:18;;;;;;;;;;;;;;;18.98;59.04;98089.25;2061514;28;19921;-66
2022/04/24 02:14:18;;;;;;;;;;;;;;;18.97;58.97;98093.88;2064738;28;20024;-66
2022/04/24 02:15:18;;;;;;;;;;;;;;;18.97;58.94;98093.03;2063778;28;19921;-66
2022/04/24 02:16:19;;;;;;;;;;;;;;;18.97;59.03;98087.56;2064370;28;19914;-66
2022/04/24 02:17:19;;;;;;;;;;;;;;;18.98;58.98;98091.97;2063024;28;20009;-65
2022/04/24 02:18:19;;;;;;;;;;;;;;;18.97;58.98;98093.88;2064726;28;20257;-65
2022/04/24 02:19:19;;;;;;;;;;;;;;;18.97;59.02;98088.41;2065564;28;20628;-66
2022/04/24 02:20:20;;;;;;;;;;;;;;;18.97;58.92;98082.13;2064381;28;20015;-64
2022/04/24 02:21:20;;;;;;;;;;;;;;;18.98;58.96;98089.25;2065000;28;20036;-65
2022/04/24 02:22:21;;;;;;;;;;;;;;;18.97;58.97;98087.56;2063944;28;20397;-65
2022/04/24 02:23:21;;;;;;;;;;;;;;;18.97;58.92;98087.56;2064166;28;20605;-66
2022/04/24 02:24:21;;;;;;;;;;;;;;;18.96;58.99;98086.75;2065189;28;19914;-66
2022/04/24 02:25:22;;;;;;;;;;;;;;;18.97;58.92;98084.84;2063064;28;20346;-67
2022/04/24 02:26:22;;;;;;;;;;;;;;;18.97;59.02;98087.56;2065228;28;20375;-66
2022/04/24 02:27:23;;;;;;;;;;;;;;;18.97;58.94;98093.03;2062711;28;19928;-66
2022/04/24 02:28:23;;;;;;;;;;;;;;;18.96;59.08;98091.34;2063225;28;19945;-66
2022/04/24 02:29:25;;;;;;;;;;;;;;;18.97;59.01;98098.50;2061640;28;20436;-66
2022/04/24 02:30:27;;;;;;;;;;;;;;;18.94;58.87;98094.28;2063536;28;19917;-65
2022/04/24 02:31:27;;;;;;;;;;;;;;;18.95;59.00;98097.84;2064766;28;19971;-65
2022/04/24 02:32:27;;;;;;;;;;;;;;;18.94;58.89;98090.72;2062523;28;19972;-65
2022/04/24 02:33:28;;;;;;;;;;;;;;;18.94;59.00;98098.91;2063022;28;20422;-65
2022/04/24 02:34:28;;;;;;;;;;;;;;;18.93;59.06;98091.72;2063118;28;20282;-65
2022/04/24 02:35:30;;;;;;;;;;;;;;;18.94;59.17;98096.16;2062369;28;19914;-65
2022/04/24 02:36:30;;;;;;;;;;;;;;;18.94;59.04;98093.44;2064377;28;19917;-66
2022/04/24 02:37:32;;;;;;;;;;;;;;;18.93;59.05;98097.19;2063472;28;19999;-65
2022/04/24 02:38:32;;;;;;;;;;;;;;;18.93;59.08;98099.94;2064734;28;20250;-65
2022/04/24 02:39:32;;;;;;;;;;;;;;;18.93;59.12;98102.66;2063944;28;19967;-66
2022/04/24 02:40:34;;;;;;;;;;;;;;;18.93;59.11;98094.47;2062283;28;19917;-66
2022/04/24 02:41:34;;;;;;;;;;;;;;;18.92;59.13;98092.78;2061536;28;19914;-66
2022/04/24 02:42:36;;;;;;;;;;;;;;;18.91;59.14;98100.09;2061985;28;19921;-66
2022/04/24 02:43:36;;;;;;;;;;;;;;;18.91;59.26;98099.28;2064256;28;19932;-66
2022/04/24 02:44:37;;;;;;;;;;;;;;;18.90;59.15;98095.72;2061886;28;19942;-66
2022/04/24 02:45:37;;;;;;;;;;;;;;;18.91;59.18;98104.72;2062726;28;19983;-67
2022/04/24 02:46:38;;;;;;;;;;;;;;;18.88;59.21;98095.06;2062931;28;20521;-66
2022/04/24 02:47:38;;;;;;;;;;;;;;;18.88;59.28;98102.41;2069568;28;19921;-66
2022/04/24 02:48:38;;;;;;;;;;;;;;;18.87;59.20;98098.00;2065678;28;19996;-64
2022/04/24 02:49:39;;;;;;;;;;;;;;;18.88;59.28;98105.13;2061177;28;20659;-65
2022/04/24 02:50:39;;;;;;;;;;;;;;;18.87;59.26;98108.91;2064373;28;20381;-65
2022/04/24 02:51:40;;;;;;;;;;;;;;;18.84;59.31;98100.06;2064780;28;19972;-65
2022/04/24 02:52:47;;;;;;;;;;;;;;;18.84;59.33;98100.06;2060304;28;19910;-66
2022/04/24 02:53:48;;;;;;;;;;;;;;;18.83;59.39;98098.38;2063703;28;19918;-66
2022/04/24 02:54:48;;;;;;;;;;;;;;;18.82;59.34;98091.22;2064506;28;19926;-66
2022/04/24 02:55:48;;;;;;;;;;;;;;;18.83;59.27;98103.81;2067533;28;20139;-65
2022/04/24 02:56:48;;;;;;;;;;;;;;;18.82;59.37;98102.16;2058695;28;19921;-65
2022/04/24 02:57:49;;;;;;;;;;;;;;;18.82;59.40;98107.59;2059801;28;21014;-66
2022/04/24 02:58:49;;;;;;;;;;;;;;;18.81;59.44;98105.94;2064225;28;20719;-65
2022/04/24 02:59:50;;;;;;;;;;;;;;;18.81;59.46;98097.75;2063374;28;19917;-65
2022/04/24 03:00:50;;;;;;;;;;;;;;;18.81;59.47;98111.41;2064942;28;19914;-65
2022/04/24 03:01:51;;;;;;;;;;;;;;;18.81;59.47;98111.41;2064333;28;20135;-65
2022/04/24 03:02:52;;;;;;;;;;;;;;;18.81;59.31;98111.41;2064292;28;20308;-65
2022/04/24 03:03:52;;;;;;;;;;;;;;;18.81;59.42;98100.47;2058456;28;19920;-64
2022/04/24 03:04:53;;;;;;;;;;;;;;;18.81;59.38;98108.66;2062103;28;20757;-66
2022/04/24 03:05:53;;;;;;;;;;;;;;;18.80;59.27;98106.97;2061944;28;20378;-65
2022/04/24 03:06:53;;;;;;;;;;;;;;;18.81;59.41;98110.53;2064364;28;19957;-66
2022/04/24 03:07:53;;;;;;;;;;;;;;;18.81;59.41;98111.41;2062498;28;20652;-66
2022/04/24 03:08:54;;;;;;;;;;;;;;;18.81;59.43;98111.41;2062555;28;19910;-65
2022/04/24 03:09:54;;;;;;;;;;;;;;;18.80;59.45;98108.84;2063995;28;20184;-66
2022/04/24 03:10:54;;;;;;;;;;;;;;;18.81;59.44;98107.78;2062562;28;20562;-66
2022/04/24 03:11:55;;;;;;;;;;;;;;;18.81;59.43;98108.66;2064793;28;19917;-64
2022/04/24 03:12:55;;;;;;;;;;;;;;;18.80;59.39;98109.69;2063976;28;19914;-65
2022/04/24 03:13:55;;;;;;;;;;;;;;;18.80;59.44;98112.41;2064547;28;19920;-65
2022/04/24 03:14:56;;;;;;;;;;;;;;;18.80;59.44;98115.16;2063099;28;19928;-66
2022/04/24 03:15:56;;;;;;;;;;;;;;;18.79;59.45;98113.47;2062430;28;19925;-66
2022/04/24 03:16:57;;;;;;;;;;;;;;;18.80;59.53;98114.31;2061702;28;19922;-66
2022/04/24 03:17:58;;;;;;;;;;;;;;;18.79;59.50;98116.19;2064142;28;19917;-66
2022/04/24 03:18:58;;;;;;;;;;;;;;;18.78;59.60;98122.69;2061739;28;19921;-67
2022/04/24 03:19:59;;;;;;;;;;;;;;;18.78;59.52;98113.66;2065147;28;19964;-66
2022/04/24 03:20:59;;;;;;;;;;;;;;;18.78;59.53;98111.75;2063760;28;19940;-66
2022/04/24 03:21:59;;;;;;;;;;;;;;;18.77;59.53;98115.53;2062534;28;20397;-66
2022/04/24 03:22:59;;;;;;;;;;;;;;;18.78;59.47;98111.75;2062765;28;19929;-66
2022/04/24 03:24:00;;;;;;;;;;;;;;;18.77;59.56;98114.72;2064000;28;19917;-65
2022/04/24 03:25:05;;;;;;;;;;;;;;;18.76;59.53;98113.00;2064781;28;19922;-66
2022/04/24 03:26:05;;;;;;;;;;;;;;;18.76;59.46;98116.56;2064969;28;19913;-66
2022/04/24 03:27:06;;;;;;;;;;;;;;;18.75;59.53;98123.03;2061958;28;19950;-66
2022/04/24 03:28:08;;;;;;;;;;;;;;;18.76;59.63;98124.75;2064720;28;20388;-65
2022/04/24 03:29:09;;;;;;;;;;;;;;;18.74;59.51;98126.81;2063059;28;19917;-67
2022/04/24 03:30:09;;;;;;;;;;;;;;;18.75;59.69;98131.22;2063779;28;19987;-66
2022/04/24 03:31:10;;;;;;;;;;;;;;;18.74;59.67;98132.28;2064062;28;20620;-66
2022/04/24 03:32:10;;;;;;;;;;;;;;;18.74;59.74;98131.41;2063403;28;19999;-66
2022/04/24 03:33:10;;;;;;;;;;;;;;;18.72;59.67;98128.91;2065147;28;19967;-66
2022/04/24 03:34:11;;;;;;;;;;;;;;;18.71;59.75;98127.19;2062601;28;20375;-66
2022/04/24 03:35:11;;;;;;;;;;;;;;;18.71;59.74;98127.19;2065016;28;19925;-66
2022/04/24 03:36:12;;;;;;;;;;;;;;;18.71;59.76;98132.66;2063109;28;19928;-66
2022/04/24 03:37:12;;;;;;;;;;;;;;;18.71;59.67;98134.53;2065158;28;19943;-66
2022/04/24 03:38:13;;;;;;;;;;;;;;;18.70;59.72;98130.97;2064869;28;19905;-65
2022/04/24 03:39:13;;;;;;;;;;;;;;;18.70;59.72;98141.91;2063708;28;19972;-66
2022/04/24 03:40:14;;;;;;;;;;;;;;;18.69;59.75;98137.50;2062561;28;19914;-66
2022/04/24 03:41:14;;;;;;;;;;;;;;;18.68;59.80;98138.50;2056077;28;19910;-66
2022/04/24 03:42:14;;;;;;;;;;;;;;;18.69;59.82;98140.22;2063973;28;19924;-66
2022/04/24 03:43:15;;;;;;;;;;;;;;;18.68;59.82;98138.50;2065026;28;19944;-65
2022/04/24 03:44:15;;;;;;;;;;;;;;;18.68;59.77;98138.50;2060439;28;20450;-66
2022/04/24 03:45:16;;;;;;;;;;;;;;;18.68;59.86;98143.97;2064281;28;19967;-65
2022/04/24 03:46:16;;;;;;;;;;;;;;;18.68;59.85;98152.16;2065007;28;20305;-65
2022/04/24 03:47:16;;;;;;;;;;;;;;;18.67;59.78;98149.59;2064063;28;19913;-65
2022/04/24 03:48:17;;;;;;;;;;;;;;;18.69;59.88;98155.72;2064825;28;20380;-65
2022/04/24 03:49:17;;;;;;;;;;;;;;;18.68;59.79;98154.88;2071350;28;19917;-65
2022/04/24 03:50:19;;;;;;;;;;;;;;;18.69;59.84;98164.78;2072055;28;19968;-65
2022/04/24 03:51:19;;;;;;;;;;;;;;;18.67;59.83;98158.66;2063418;28;19921;-66
2022/04/24 03:52:20;;;;;;;;;;;;;;;18.68;59.80;98159.50;2064245;28;20084;-65
2022/04/24 03:53:20;;;;;;;;;;;;;;;18.68;59.64;98160.34;2069976;28;19924;-65
2022/04/24 03:54:21;;;;;;;;;;;;;;;18.69;59.79;98156.59;2064440;28;19925;-65
2022/04/24 03:55:21;;;;;;;;;;;;;;;18.67;59.86;98153.22;2062239;28;20384;-65
2022/04/24 03:56:21;;;;;;;;;;;;;;;18.68;59.81;98160.34;2064136;28;19968;-64
2022/04/24 03:57:22;;;;;;;;;;;;;;;18.68;59.83;98159.50;2063399;28;20299;-66
2022/04/24 03:58:22;;;;;;;;;;;;;;;18.67;59.82;98150.47;2064224;28;20335;-66
2022/04/24 03:59:22;;;;;;;;;;;;;;;18.66;59.88;98154.22;2063825;28;19914;-65
2022/04/24 04:00:23;;;;;;;;;;;;;;;18.66;59.81;98151.50;2063921;28;20442;-65
2022/04/24 04:01:23;;;;;;;;;;;;;;;18.65;59.84;98144.38;2064603;28;20073;-66
2022/04/24 04:02:24;;;;;;;;;;;;;;;18.65;59.91;98149.81;2062354;28;19922;-66
2022/04/24 04:03:24;;;;;;;;;;;;;;;18.66;59.83;98146.03;2064470;28;19909;-64
2022/04/24 04:04:25;;;;;;;;;;;;;;;18.65;59.83;98152.56;2064808;28;20000;-65
2022/04/24 04:05:25;;;;;;;;;;;;;;;18.65;59.87;98147.09;2064425;28;19935;-65
2022/04/24 04:06:26;;;;;;;;;;;;;;;18.66;59.91;98150.66;2065487;28;20339;-66
2022/04/24 04:07:26;;;;;;;;;;;;;;;18.65;59.96;98152.56;2063195;28;19917;-66
2022/04/24 04:08:27;;;;;;;;;;;;;;;18.64;59.86;98145.38;2064445;28;19986;-66
2022/04/24 04:09:27;;;;;;;;;;;;;;;18.63;59.97;98151.91;2064001;28;20116;-66
2022/04/24 04:10:28;;;;;;;;;;;;;;;18.64;59.91;98148.13;2062791;28;19924;-65
2022/04/24 04:11:28;;;;;;;;;;;;;;;18.64;59.95;98153.56;2066391;28;19913;-66
2022/04/24 04:12:29;;;;;;;;;;;;;;;18.64;59.96;98154.44;2064725;28;20654;-66
2022/04/24 04:13:29;;;;;;;;;;;;;;;18.63;59.92;98160.09;2062380;28;20415;-65
2022/04/24 04:14:29;;;;;;;;;;;;;;;18.62;60.01;98155.69;2063965;28;19922;-65
2022/04/24 04:15:29;;;;;;;;;;;;;;;18.61;60.00;98153.97;2063920;28;19918;-64
2022/04/24 04:16:30;;;;;;;;;;;;;;;18.61;60.01;98162.16;2064718;28;20411;-64
2022/04/24 04:17:30;;;;;;;;;;;;;;;18.60;59.98;98164.03;2063621;28;20380;-64
2022/04/24 04:18:31;;;;;;;;;;;;;;;18.59;60.06;98158.78;2061755;28;20159;-65
2022/04/24 04:19:31;;;;;;;;;;;;;;;18.59;60.04;98166.94;2068443;28;19935;-65
2022/04/24 04:20:31;;;;;;;;;;;;;;;18.58;60.09;98165.28;2064077;28;20165;-65
2022/04/24 04:21:32;;;;;;;;;;;;;;;18.57;60.06;98164.44;2065785;28;19922;-66
2022/04/24 04:22:32;;;;;;;;;;;;;;;18.57;60.02;98158.97;2065037;28;20292;-66
2022/04/24 04:23:32;;;;;;;;;;;;;;;18.57;60.01;98158.97;2064051;28;19979;-66
2022/04/24 04:24:32;;;;;;;;;;;;;;;18.56;60.10;98161.88;2063979;28;19914;-65
2022/04/24 04:25:33;;;;;;;;;;;;;;;18.55;60.12;98155.59;2064750;28;19956;-65
2022/04/24 04:26:33;;;;;;;;;;;;;;;18.57;60.16;98171.75;2063494;28;20404;-65
2022/04/24 04:27:34;;;;;;;;;;;;;;;18.56;60.08;98172.81;2065005;28;20596;-65
2022/04/24 04:28:34;;;;;;;;;;;;;;;18.56;60.22;98176.38;2060632;28;19913;-65
2022/04/24 04:29:34;;;;;;;;;;;;;;;18.54;60.13;98178.44;2063133;28;19946;-66
2022/04/24 04:30:34;;;;;;;;;;;;;;;18.55;59.99;98182.88;2065963;28;20296;-65
2022/04/24 04:31:35;;;;;;;;;;;;;;;18.54;60.16;98178.44;2064632;28;19916;-66
2022/04/24 04:32:35;;;;;;;;;;;;;;;18.55;60.10;98176.59;2064832;28;19913;-66
2022/04/24 04:33:36;;;;;;;;;;;;;;;18.55;60.20;98177.44;2064636;28;19914;-66
2022/04/24 04:34:37;;;;;;;;;;;;;;;18.56;60.18;98183.72;2064781;28;19928;-66
2022/04/24 04:35:38;;;;;;;;;;;;;;;18.54;60.21;98181.16;2063034;28;20559;-66
2022/04/24 04:36:38;;;;;;;;;;;;;;;18.55;60.15;98176.59;2062030;28;20439;-66
2022/04/24 04:37:42;;;;;;;;;;;;;;;18.54;60.11;98178.44;2064659;28;20424;-66
2022/04/24 04:38:42;;;;;;;;;;;;;;;18.54;60.17;98170.25;2062925;28;19989;-66
2022/04/24 04:39:43;;;;;;;;;;;;;;;18.54;60.05;98175.72;2064289;28;19988;-66
2022/04/24 04:40:43;;;;;;;;;;;;;;;18.55;60.19;98171.13;2063549;28;19913;-66
2022/04/24 04:41:43;;;;;;;;;;;;;;;18.54;60.14;98180.34;2064948;28;19999;-66
2022/04/24 04:42:44;;;;;;;;;;;;;;;18.54;60.20;98180.34;2064929;28;19963;-67
2022/04/24 04:43:45;;;;;;;;;;;;;;;18.53;60.17;98179.50;2061682;28;20434;-66
2022/04/24 04:44:45;;;;;;;;;;;;;;;18.54;60.15;98186.63;2065620;28;19917;-66
2022/04/24 04:45:47;;;;;;;;;;;;;;;18.54;60.22;98192.09;2064141;28;19975;-66
2022/04/24 04:46:47;;;;;;;;;;;;;;;18.53;60.09;98189.56;2062946;28;19909;-65
2022/04/24 04:47:47;;;;;;;;;;;;;;;18.53;60.19;98195.88;2064788;28;19925;-65
2022/04/24 04:48:48;;;;;;;;;;;;;;;18.54;60.09;98199.44;2063340;28;19918;-65
2022/04/24 04:49:48;;;;;;;;;;;;;;;18.53;60.19;98200.47;2060593;28;19910;-65
2022/04/24 04:50:48;;;;;;;;;;;;;;;18.52;60.23;98199.66;2061748;28;19918;-65
2022/04/24 04:51:48;;;;;;;;;;;;;;;18.52;60.13;98199.66;2064182;28;19939;-65
2022/04/24 04:52:49;;;;;;;;;;;;;;;18.53;60.18;98200.47;2059952;28;19940;-66
2022/04/24 04:53:51;;;;;;;;;;;;;;;18.52;60.21;98201.50;2062521;28;19917;-66
2022/04/24 04:54:52;;;;;;;;;;;;;;;18.52;60.18;98190.59;2065086;28;19947;-66
2022/04/24 04:55:52;;;;;;;;;;;;;;;18.52;60.22;98201.50;2063916;28;20001;-66
2022/04/24 04:56:52;;;;;;;;;;;;;;;18.52;60.13;98198.78;2064344;28;19967;-66
2022/04/24 04:57:54;;;;;;;;;;;;;;;18.51;60.26;98199.81;2064965;28;20443;-66
2022/04/24 04:58:54;;;;;;;;;;;;;;;18.51;60.31;98199.81;2064661;28;19917;-65
2022/04/24 04:59:55;;;;;;;;;;;;;;;18.50;60.25;98203.59;2063026;28;19914;-65
2022/04/24 05:00:55;;;;;;;;;;;;;;;18.49;60.23;98199.16;2063270;28;19913;-66
2022/04/24 05:01:56;;;;;;;;;;;;;;;18.49;60.40;98216.38;2062791;28;20193;-66
2022/04/24 05:02:56;;;;;;;;;;;;;;;18.48;60.34;98211.97;2069999;28;19948;-66
2022/04/24 05:03:58;;;;;;;;;;;;;;;18.48;60.29;98219.31;2069009;28;19917;-65
2022/04/24 05:05:00;;;;;;;;;;;;;;;18.47;60.42;98214.88;2063238;28;19918;-66
2022/04/24 05:06:00;;;;;;;;;;;;;;;18.45;60.38;98214.22;2064455;28;19918;-67
2022/04/24 05:07:00;;;;;;;;;;;;;;;18.46;60.28;98216.75;2064622;28;19971;-66
2022/04/24 05:08:01;;;;;;;;;;;;;;;18.46;60.34;98221.38;2066026;28;19975;-66
2022/04/24 05:09:01;;;;;;;;;;;;;;;18.46;60.36;98207.75;2064641;28;19988;-64
2022/04/24 05:10:02;;;;;;;;;;;;;;;18.46;60.36;98216.75;2066370;28;20403;-65
2022/04/24 05:11:02;;;;;;;;;;;;;;;18.45;60.46;98219.66;2064454;28;20387;-65
2022/04/24 05:12:02;;;;;;;;;;;;;;;18.45;60.47;98219.66;2064415;28;20066;-65
2022/04/24 05:13:03;;;;;;;;;;;;;;;18.44;60.32;98224.28;2062461;28;19924;-65
2022/04/24 05:14:03;;;;;;;;;;;;;;;18.45;60.36;98230.59;2062973;28;20676;-65
2022/04/24 05:15:04;;;;;;;;;;;;;;;18.43;60.39;98234.38;2064001;28;19972;-66
2022/04/24 05:16:05;;;;;;;;;;;;;;;18.44;60.31;98229.75;2065933;28;19917;-65